sensor_id;sensor_type;location;lat;lon;timestamp;temperature;humidity
3208;DHT22;1616;52.394;9.756;2022-12-05T00:02:24;3.40;2.50
3208;DHT22;1616;52.394;9.756;2022-12-05T00:04:50;3.40;2.40
3208;DHT22;1616;52.394;9.756;2022-12-05T00:07:16;3.40;2.20
3208;DHT22;1616;52.394;9.756;2022-12-05T00:09:42;3.40;2.20
3208;DHT22;1616;52.394;9.756;2022-12-05T00:12:08;3.40;2.10
3208;DHT22;1616;52.394;9.756;2022-12-05T00:14:33;3.40;2.40
3208;DHT22;1616;52.394;9.756;2022-12-05T00:16:59;3.40;2.90
3208;DHT22;1616;52.394;9.756;2022-12-05T00:19:25;3.40;2.50
3208;DHT22;1616;52.394;9.756;2022-12-05T00:21:51;3.40;2.50
3208;DHT22;1616;52.394;9.756;2022-12-05T00:24:17;3.40;2.50
3208;DHT22;1616;52.394;9.756;2022-12-05T00:26:44;3.40;2.40
3208;DHT22;1616;52.394;9.756;2022-12-05T00:29:10;3.40;2.20
3208;DHT22;1616;52.394;9.756;2022-12-05T00:31:36;3.40;2.20
3208;DHT22;1616;52.394;9.756;2022-12-05T00:34:05;3.40;2.20
3208;DHT22;1616;52.394;9.756;2022-12-05T00:36:33;3.40;2.20
3208;DHT22;1616;52.394;9.756;2022-12-05T00:39:01;3.40;2.20
3208;DHT22;1616;52.394;9.756;2022-12-05T00:41:28;3.40;2.20
3208;DHT22;1616;52.394;9.756;2022-12-05T00:43:56;3.40;2.20
3208;DHT22;1616;52.394;9.756;2022-12-05T00:46:25;3.40;2.40
3208;DHT22;1616;52.394;9.756;2022-12-05T00:48:55;3.40;2.10
3208;DHT22;1616;52.394;9.756;2022-12-05T00:51:28;3.40;2.30
3208;DHT22;1616;52.394;9.756;2022-12-05T00:53:58;3.40;2.10
3208;DHT22;1616;52.394;9.756;2022-12-05T00:56:24;3.40;2.30
3208;DHT22;1616;52.394;9.756;2022-12-05T00:58:52;3.40;2.30
3208;DHT22;1616;52.394;9.756;2022-12-05T01:01:23;3.40;2.50
3208;DHT22;1616;52.394;9.756;2022-12-05T01:03:52;3.40;2.40
3208;DHT22;1616;52.394;9.756;2022-12-05T01:06:19;3.40;2.50
3208;DHT22;1616;52.394;9.756;2022-12-05T01:08:46;3.40;2.70
3208;DHT22;1616;52.394;9.756;2022-12-05T01:11:14;3.40;2.80
3208;DHT22;1616;52.394;9.756;2022-12-05T01:13:42;3.50;2.90
3208;DHT22;1616;52.394;9.756;2022-12-05T01:16:30;3.40;2.90
3208;DHT22;1616;52.394;9.756;2022-12-05T01:18:57;3.40;2.90
3208;DHT22;1616;52.394;9.756;2022-12-05T01:21:24;3.50;2.60
3208;DHT22;1616;52.394;9.756;2022-12-05T01:23:50;3.50;2.60
3208;DHT22;1616;52.394;9.756;2022-12-05T01:26:18;3.50;2.60
3208;DHT22;1616;52.394;9.756;2022-12-05T01:28:45;3.50;2.60
3208;DHT22;1616;52.394;9.756;2022-12-05T01:31:24;3.50;2.70
3208;DHT22;1616;52.394;9.756;2022-12-05T01:33:52;3.50;2.60
3208;DHT22;1616;52.394;9.756;2022-12-05T01:36:18;3.50;2.70
3208;DHT22;1616;52.394;9.756;2022-12-05T01:38:44;3.50;2.70
3208;DHT22;1616;52.394;9.756;2022-12-05T01:41:22;3.50;2.80
3208;DHT22;1616;52.394;9.756;2022-12-05T01:44:03;3.50;2.80
3208;DHT22;1616;52.394;9.756;2022-12-05T01:46:34;3.50;3.00
3208;DHT22;1616;52.394;9.756;2022-12-05T01:49:23;3.50;3.00
3208;DHT22;1616;52.394;9.756;2022-12-05T01:51:54;3.50;2.80
3208;DHT22;1616;52.394;9.756;2022-12-05T01:54:22;3.50;2.90
3208;DHT22;1616;52.394;9.756;2022-12-05T01:57:09;3.50;2.80
3208;DHT22;1616;52.394;9.756;2022-12-05T01:59:38;3.50;2.80
3208;DHT22;1616;52.394;9.756;2022-12-05T02:02:06;3.50;2.70
3208;DHT22;1616;52.394;9.756;2022-12-05T02:04:40;3.50;2.60
3208;DHT22;1616;52.394;9.756;2022-12-05T02:07:07;3.50;2.60
3208;DHT22;1616;52.394;9.756;2022-12-05T02:09:33;3.50;2.70
3208;DHT22;1616;52.394;9.756;2022-12-05T02:12:02;3.50;2.80
3208;DHT22;1616;52.394;9.756;2022-12-05T02:14:45;3.50;2.90
3208;DHT22;1616;52.394;9.756;2022-12-05T02:17:26;3.50;2.80
3208;DHT22;1616;52.394;9.756;2022-12-05T02:20:05;3.50;3.00
3208;DHT22;1616;52.394;9.756;2022-12-05T02:31:02;3.50;2.60
3208;DHT22;1616;52.394;9.756;2022-12-05T02:33:38;3.50;2.80
3208;DHT22;1616;52.394;9.756;2022-12-05T02:36:22;3.50;3.00
3208;DHT22;1616;52.394;9.756;2022-12-05T02:38:52;3.50;3.10
3208;DHT22;1616;52.394;9.756;2022-12-05T02:44:31;3.50;3.10
3208;DHT22;1616;52.394;9.756;2022-12-05T02:46:58;3.50;3.00
3208;DHT22;1616;52.394;9.756;2022-12-05T02:49:30;3.50;3.10
3208;DHT22;1616;52.394;9.756;2022-12-05T02:51:58;3.50;2.90
3208;DHT22;1616;52.394;9.756;2022-12-05T02:54:34;3.50;2.90
3208;DHT22;1616;52.394;9.756;2022-12-05T02:57:02;3.50;3.00
3208;DHT22;1616;52.394;9.756;2022-12-05T02:59:28;3.50;3.20
3208;DHT22;1616;52.394;9.756;2022-12-05T03:01:54;3.50;3.30
3208;DHT22;1616;52.394;9.756;2022-12-05T03:04:23;3.50;3.10
3208;DHT22;1616;52.394;9.756;2022-12-05T03:07:02;3.50;3.00
3208;DHT22;1616;52.394;9.756;2022-12-05T03:09:45;3.50;3.20
3208;DHT22;1616;52.394;9.756;2022-12-05T03:12:23;3.50;3.10
3208;DHT22;1616;52.394;9.756;2022-12-05T03:14:55;3.50;3.00
3208;DHT22;1616;52.394;9.756;2022-12-05T03:17:28;3.50;3.10
3208;DHT22;1616;52.394;9.756;2022-12-05T03:20:04;3.60;3.30
3208;DHT22;1616;52.394;9.756;2022-12-05T03:22:36;3.60;3.40
3208;DHT22;1616;52.394;9.756;2022-12-05T03:25:03;3.60;3.30
3208;DHT22;1616;52.394;9.756;2022-12-05T03:27:51;3.60;3.10
3208;DHT22;1616;52.394;9.756;2022-12-05T03:30:20;3.60;3.40
3208;DHT22;1616;52.394;9.756;2022-12-05T03:33:14;3.60;3.30
3208;DHT22;1616;52.394;9.756;2022-12-05T03:36:02;3.60;3.00
3208;DHT22;1616;52.394;9.756;2022-12-05T03:38:34;3.60;3.00
3208;DHT22;1616;52.394;9.756;2022-12-05T03:41:15;3.60;3.00
3208;DHT22;1616;52.394;9.756;2022-12-05T03:44:18;3.60;2.90
3208;DHT22;1616;52.394;9.756;2022-12-05T03:46:53;3.60;3.10
3208;DHT22;1616;52.394;9.756;2022-12-05T03:49:26;3.60;3.10
3208;DHT22;1616;52.394;9.756;2022-12-05T03:52:08;3.60;3.30
3208;DHT22;1616;52.394;9.756;2022-12-05T03:54:42;3.60;3.30
3208;DHT22;1616;52.394;9.756;2022-12-05T03:57:23;3.60;3.20
3208;DHT22;1616;52.394;9.756;2022-12-05T03:59:58;3.60;3.20
3208;DHT22;1616;52.394;9.756;2022-12-05T04:02:31;3.60;3.20
3208;DHT22;1616;52.394;9.756;2022-12-05T04:05:08;3.60;3.30
3208;DHT22;1616;52.394;9.756;2022-12-05T04:07:36;3.60;3.00
3208;DHT22;1616;52.394;9.756;2022-12-05T04:10:08;3.60;3.10
3208;DHT22;1616;52.394;9.756;2022-12-05T04:12:38;3.60;3.30
3208;DHT22;1616;52.394;9.756;2022-12-05T04:15:11;3.60;3.30
3208;DHT22;1616;52.394;9.756;2022-12-05T04:17:46;3.60;3.30
3208;DHT22;1616;52.394;9.756;2022-12-05T04:20:16;3.60;3.30
3208;DHT22;1616;52.394;9.756;2022-12-05T04:23:01;3.70;3.30
3208;DHT22;1616;52.394;9.756;2022-12-05T04:25:36;3.70;3.30
3208;DHT22;1616;52.394;9.756;2022-12-05T04:28:46;3.70;3.10
3208;DHT22;1616;52.394;9.756;2022-12-05T04:31:18;3.70;3.10
3208;DHT22;1616;52.394;9.756;2022-12-05T04:33:49;3.70;3.30
3208;DHT22;1616;52.394;9.756;2022-12-05T04:36:29;3.70;3.20
3208;DHT22;1616;52.394;9.756;2022-12-05T04:39:12;3.70;3.10
3208;DHT22;1616;52.394;9.756;2022-12-05T04:42:01;3.70;3.10
3208;DHT22;1616;52.394;9.756;2022-12-05T04:44:39;3.70;3.00
3208;DHT22;1616;52.394;9.756;2022-12-05T04:47:07;3.70;3.00
3208;DHT22;1616;52.394;9.756;2022-12-05T04:49:35;3.60;3.00
3208;DHT22;1616;52.394;9.756;2022-12-05T04:52:06;3.70;3.10
3208;DHT22;1616;52.394;9.756;2022-12-05T04:54:55;3.60;3.00
3208;DHT22;1616;52.394;9.756;2022-12-05T04:57:43;3.70;3.20
3208;DHT22;1616;52.394;9.756;2022-12-05T05:00:10;3.60;2.90
3208;DHT22;1616;52.394;9.756;2022-12-05T05:03:02;3.60;2.90
3208;DHT22;1616;52.394;9.756;2022-12-05T05:05:30;3.60;2.60
3208;DHT22;1616;52.394;9.756;2022-12-05T05:07:57;3.50;2.70
3208;DHT22;1616;52.394;9.756;2022-12-05T05:10:38;3.60;2.80
3208;DHT22;1616;52.394;9.756;2022-12-05T05:13:06;3.60;3.00
3208;DHT22;1616;52.394;9.756;2022-12-05T05:15:32;3.60;3.20
3208;DHT22;1616;52.394;9.756;2022-12-05T05:17:59;3.60;3.20
3208;DHT22;1616;52.394;9.756;2022-12-05T05:20:24;3.60;3.30
3208;DHT22;1616;52.394;9.756;2022-12-05T05:22:56;3.60;3.00
3208;DHT22;1616;52.394;9.756;2022-12-05T05:25:22;3.60;3.20
3208;DHT22;1616;52.394;9.756;2022-12-05T05:27:53;3.60;3.10
3208;DHT22;1616;52.394;9.756;2022-12-05T05:30:20;3.60;3.10
3208;DHT22;1616;52.394;9.756;2022-12-05T05:32:47;3.60;3.20
3208;DHT22;1616;52.394;9.756;2022-12-05T05:35:14;3.60;3.20
3208;DHT22;1616;52.394;9.756;2022-12-05T05:37:40;3.60;3.10
3208;DHT22;1616;52.394;9.756;2022-12-05T05:40:07;3.60;3.00
3208;DHT22;1616;52.394;9.756;2022-12-05T05:42:35;3.60;3.00
3208;DHT22;1616;52.394;9.756;2022-12-05T05:45:07;3.60;3.10
3208;DHT22;1616;52.394;9.756;2022-12-05T05:47:33;3.60;3.20
3208;DHT22;1616;52.394;9.756;2022-12-05T05:49:59;3.60;3.00
3208;DHT22;1616;52.394;9.756;2022-12-05T05:52:25;3.50;3.10
3208;DHT22;1616;52.394;9.756;2022-12-05T05:54:51;3.50;3.10
3208;DHT22;1616;52.394;9.756;2022-12-05T05:57:17;3.50;3.20
3208;DHT22;1616;52.394;9.756;2022-12-05T05:59:43;3.50;3.10
3208;DHT22;1616;52.394;9.756;2022-12-05T06:02:10;3.50;3.20
3208;DHT22;1616;52.394;9.756;2022-12-05T06:04:35;3.50;3.10
3208;DHT22;1616;52.394;9.756;2022-12-05T06:07:02;3.50;3.10
3208;DHT22;1616;52.394;9.756;2022-12-05T06:09:28;3.50;3.20
3208;DHT22;1616;52.394;9.756;2022-12-05T06:11:54;3.50;3.10
3208;DHT22;1616;52.394;9.756;2022-12-05T06:14:26;3.50;3.30
3208;DHT22;1616;52.394;9.756;2022-12-05T06:16:52;3.50;3.20
3208;DHT22;1616;52.394;9.756;2022-12-05T06:19:18;3.50;3.30
3208;DHT22;1616;52.394;9.756;2022-12-05T06:21:44;3.50;3.20
3208;DHT22;1616;52.394;9.756;2022-12-05T06:24:10;3.60;3.00
3208;DHT22;1616;52.394;9.756;2022-12-05T06:26:35;3.50;2.80
3208;DHT22;1616;52.394;9.756;2022-12-05T06:29:01;3.50;2.90
3208;DHT22;1616;52.394;9.756;2022-12-05T06:31:27;3.50;2.90
3208;DHT22;1616;52.394;9.756;2022-12-05T06:33:59;3.50;3.10
3208;DHT22;1616;52.394;9.756;2022-12-05T06:36:26;3.50;3.20
3208;DHT22;1616;52.394;9.756;2022-12-05T06:38:53;3.50;3.00
3208;DHT22;1616;52.394;9.756;2022-12-05T06:41:19;3.50;2.90
3208;DHT22;1616;52.394;9.756;2022-12-05T06:43:46;3.40;2.50
3208;DHT22;1616;52.394;9.756;2022-12-05T06:46:13;3.50;4.50
3208;DHT22;1616;52.394;9.756;2022-12-05T06:48:39;3.50;3.50
3208;DHT22;1616;52.394;9.756;2022-12-05T06:51:08;3.60;3.10
3208;DHT22;1616;52.394;9.756;2022-12-05T06:53:34;3.50;2.80
3208;DHT22;1616;52.394;9.756;2022-12-05T06:56:02;3.50;2.70
3208;DHT22;1616;52.394;9.756;2022-12-05T06:58:29;3.40;2.60
3208;DHT22;1616;52.394;9.756;2022-12-05T07:00:55;3.40;2.60
3208;DHT22;1616;52.394;9.756;2022-12-05T07:03:40;3.40;2.60
3208;DHT22;1616;52.394;9.756;2022-12-05T07:06:06;3.40;2.60
3208;DHT22;1616;52.394;9.756;2022-12-05T07:08:33;3.30;2.10
3208;DHT22;1616;52.394;9.756;2022-12-05T07:10:59;3.30;2.40
3208;DHT22;1616;52.394;9.756;2022-12-05T07:13:25;3.30;2.40
3208;DHT22;1616;52.394;9.756;2022-12-05T07:15:50;3.20;2.40
3208;DHT22;1616;52.394;9.756;2022-12-05T07:18:17;3.20;2.40
3208;DHT22;1616;52.394;9.756;2022-12-05T07:20:43;3.20;2.50
3208;DHT22;1616;52.394;9.756;2022-12-05T07:23:09;3.20;2.70
3208;DHT22;1616;52.394;9.756;2022-12-05T07:25:41;3.20;2.80
3208;DHT22;1616;52.394;9.756;2022-12-05T07:28:07;3.20;2.80
3208;DHT22;1616;52.394;9.756;2022-12-05T07:30:33;3.20;2.90
3208;DHT22;1616;52.394;9.756;2022-12-05T07:32:59;3.20;2.90
3208;DHT22;1616;52.394;9.756;2022-12-05T07:35:25;3.20;3.00
3208;DHT22;1616;52.394;9.756;2022-12-05T07:37:51;3.20;3.00
3208;DHT22;1616;52.394;9.756;2022-12-05T07:40:17;3.20;3.20
3208;DHT22;1616;52.394;9.756;2022-12-05T07:42:43;3.20;3.40
3208;DHT22;1616;52.394;9.756;2022-12-05T07:45:09;3.20;3.60
3208;DHT22;1616;52.394;9.756;2022-12-05T07:47:35;3.30;3.60
3208;DHT22;1616;52.394;9.756;2022-12-05T07:50:00;3.30;3.70
3208;DHT22;1616;52.394;9.756;2022-12-05T07:52:26;3.30;3.50
3208;DHT22;1616;52.394;9.756;2022-12-05T07:54:52;3.30;3.40
3208;DHT22;1616;52.394;9.756;2022-12-05T07:57:18;3.30;3.40
3208;DHT22;1616;52.394;9.756;2022-12-05T07:59:44;3.30;3.60
3208;DHT22;1616;52.394;9.756;2022-12-05T08:02:09;3.30;3.70
3208;DHT22;1616;52.394;9.756;2022-12-05T08:04:35;3.30;3.70
3208;DHT22;1616;52.394;9.756;2022-12-05T08:07:01;3.30;3.70
3208;DHT22;1616;52.394;9.756;2022-12-05T08:09:27;3.40;3.90
3208;DHT22;1616;52.394;9.756;2022-12-05T08:11:53;3.30;3.60
3208;DHT22;1616;52.394;9.756;2022-12-05T08:14:18;3.40;3.80
3208;DHT22;1616;52.394;9.756;2022-12-05T08:16:44;3.40;3.90
3208;DHT22;1616;52.394;9.756;2022-12-05T08:19:11;3.30;3.60
3208;DHT22;1616;52.394;9.756;2022-12-05T08:21:38;3.40;3.90
3208;DHT22;1616;52.394;9.756;2022-12-05T08:24:05;3.40;4.00
3208;DHT22;1616;52.394;9.756;2022-12-05T08:26:31;3.40;3.80
3208;DHT22;1616;52.394;9.756;2022-12-05T08:29:00;3.40;3.80
3208;DHT22;1616;52.394;9.756;2022-12-05T08:31:28;3.40;4.00
3208;DHT22;1616;52.394;9.756;2022-12-05T08:33:56;3.50;4.20
3208;DHT22;1616;52.394;9.756;2022-12-05T08:36:23;3.50;4.50
3208;DHT22;1616;52.394;9.756;2022-12-05T08:38:55;3.50;4.50
3208;DHT22;1616;52.394;9.756;2022-12-05T08:41:22;3.50;4.50
3208;DHT22;1616;52.394;9.756;2022-12-05T08:43:53;3.60;4.40
3208;DHT22;1616;52.394;9.756;2022-12-05T08:46:20;3.60;4.30
3208;DHT22;1616;52.394;9.756;2022-12-05T08:48:45;3.60;4.10
3208;DHT22;1616;52.394;9.756;2022-12-05T08:51:11;3.60;4.40
3208;DHT22;1616;52.394;9.756;2022-12-05T08:53:39;3.60;3.70
3208;DHT22;1616;52.394;9.756;2022-12-05T08:56:06;3.60;4.00
3208;DHT22;1616;52.394;9.756;2022-12-05T08:58:33;3.60;3.80
3208;DHT22;1616;52.394;9.756;2022-12-05T09:01:11;3.60;3.80
3208;DHT22;1616;52.394;9.756;2022-12-05T09:03:38;3.60;4.20
3208;DHT22;1616;52.394;9.756;2022-12-05T09:06:09;3.70;4.50
3208;DHT22;1616;52.394;9.756;2022-12-05T09:08:35;3.70;4.20
3208;DHT22;1616;52.394;9.756;2022-12-05T09:11:10;3.70;4.20
3208;DHT22;1616;52.394;9.756;2022-12-05T09:13:36;3.70;4.50
3208;DHT22;1616;52.394;9.756;2022-12-05T09:18:32;3.70;4.60
3208;DHT22;1616;52.394;9.756;2022-12-05T09:21:04;3.70;4.60
3208;DHT22;1616;52.394;9.756;2022-12-05T09:23:31;3.70;4.20
3208;DHT22;1616;52.394;9.756;2022-12-05T09:25:56;3.70;3.20
3208;DHT22;1616;52.394;9.756;2022-12-05T09:28:26;3.80;3.30
3208;DHT22;1616;52.394;9.756;2022-12-05T09:30:56;3.60;3.70
3208;DHT22;1616;52.394;9.756;2022-12-05T09:33:22;3.70;4.20
3208;DHT22;1616;52.394;9.756;2022-12-05T09:35:48;3.70;4.50
3208;DHT22;1616;52.394;9.756;2022-12-05T09:38:14;3.70;5.20
3208;DHT22;1616;52.394;9.756;2022-12-05T09:40:41;3.80;4.90
3208;DHT22;1616;52.394;9.756;2022-12-05T09:43:12;3.80;5.00
3208;DHT22;1616;52.394;9.756;2022-12-05T09:45:50;3.80;4.60
3208;DHT22;1616;52.394;9.756;2022-12-05T09:48:20;3.90;4.80
3208;DHT22;1616;52.394;9.756;2022-12-05T09:50:56;3.90;4.90
3208;DHT22;1616;52.394;9.756;2022-12-05T09:56:05;3.90;5.10
3208;DHT22;1616;52.394;9.756;2022-12-05T09:58:43;4.00;4.90
3208;DHT22;1616;52.394;9.756;2022-12-05T10:13:15;4.20;5.70
3208;DHT22;1616;52.394;9.756;2022-12-05T10:20:47;4.30;5.20
3208;DHT22;1616;52.394;9.756;2022-12-05T10:25:57;4.20;5.00
3208;DHT22;1616;52.394;9.756;2022-12-05T10:30:55;4.40;4.90
3208;DHT22;1616;52.394;9.756;2022-12-05T10:33:23;4.40;4.70
3208;DHT22;1616;52.394;9.756;2022-12-05T10:35:52;4.40;5.00
3208;DHT22;1616;52.394;9.756;2022-12-05T10:38:27;4.40;3.80
3208;DHT22;1616;52.394;9.756;2022-12-05T10:40:57;4.30;4.10
3208;DHT22;1616;52.394;9.756;2022-12-05T10:43:29;4.40;4.40
3208;DHT22;1616;52.394;9.756;2022-12-05T10:45:56;4.30;4.40
3208;DHT22;1616;52.394;9.756;2022-12-05T10:48:23;4.30;4.30
3208;DHT22;1616;52.394;9.756;2022-12-05T10:50:53;4.30;4.30
3208;DHT22;1616;52.394;9.756;2022-12-05T10:53:39;4.40;4.40
3208;DHT22;1616;52.394;9.756;2022-12-05T10:59:12;4.30;3.70
3208;DHT22;1616;52.394;9.756;2022-12-05T11:01:43;4.30;3.30
3208;DHT22;1616;52.394;9.756;2022-12-05T11:04:31;4.20;3.10
3208;DHT22;1616;52.394;9.756;2022-12-05T11:07:05;4.20;3.00
3208;DHT22;1616;52.394;9.756;2022-12-05T11:09:34;4.20;3.20
3208;DHT22;1616;52.394;9.756;2022-12-05T11:12:21;4.20;3.10
3208;DHT22;1616;52.394;9.756;2022-12-05T11:17:33;4.20;2.90
3208;DHT22;1616;52.394;9.756;2022-12-05T11:20:00;4.10;2.70
3208;DHT22;1616;52.394;9.756;2022-12-05T11:22:34;4.10;2.60
3208;DHT22;1616;52.394;9.756;2022-12-05T11:25:00;4.10;2.60
3208;DHT22;1616;52.394;9.756;2022-12-05T11:27:31;4.00;2.60
3208;DHT22;1616;52.394;9.756;2022-12-05T11:30:21;4.00;2.20
3208;DHT22;1616;52.394;9.756;2022-12-05T11:32:44;4.00;2.50
3208;DHT22;1616;52.394;9.756;2022-12-05T11:51:18;4.00;3.70
3208;DHT22;1616;52.394;9.756;2022-12-05T11:56:58;4.00;3.90
3208;DHT22;1616;52.394;9.756;2022-12-05T12:05:28;4.10;3.40
3208;DHT22;1616;52.394;9.756;2022-12-05T12:08:20;4.10;3.80
3208;DHT22;1616;52.394;9.756;2022-12-05T12:11:06;4.20;4.10
3208;DHT22;1616;52.394;9.756;2022-12-05T12:16:30;4.10;2.30
3208;DHT22;1616;52.394;9.756;2022-12-05T12:19:08;4.00;2.30
3208;DHT22;1616;52.394;9.756;2022-12-05T12:35:01;3.80;2.20
3208;DHT22;1616;52.394;9.756;2022-12-05T12:37:37;3.80;2.00
3208;DHT22;1616;52.394;9.756;2022-12-05T12:50:53;3.80;3.10
3208;DHT22;1616;52.394;9.756;2022-12-05T12:59:04;3.80;3.00
3208;DHT22;1616;52.394;9.756;2022-12-05T13:01:39;3.80;2.90
3208;DHT22;1616;52.394;9.756;2022-12-05T13:04:22;3.90;3.20
3208;DHT22;1616;52.394;9.756;2022-12-05T13:06:56;3.90;3.30
3208;DHT22;1616;52.394;9.756;2022-12-05T13:09:42;3.90;3.40
3208;DHT22;1616;52.394;9.756;2022-12-05T13:12:16;3.90;3.10
3208;DHT22;1616;52.394;9.756;2022-12-05T13:14:48;3.90;2.40
3208;DHT22;1616;52.394;9.756;2022-12-05T13:17:19;3.90;2.20
3208;DHT22;1616;52.394;9.756;2022-12-05T13:19:50;4.00;3.60
3208;DHT22;1616;52.394;9.756;2022-12-05T13:22:21;4.00;3.20
3208;DHT22;1616;52.394;9.756;2022-12-05T13:24:51;4.00;3.00
3208;DHT22;1616;52.394;9.756;2022-12-05T13:27:19;4.00;2.70
3208;DHT22;1616;52.394;9.756;2022-12-05T13:30:00;4.00;3.20
3208;DHT22;1616;52.394;9.756;2022-12-05T13:34:54;4.00;2.10
3208;DHT22;1616;52.394;9.756;2022-12-05T13:37:29;4.00;2.20
3208;DHT22;1616;52.394;9.756;2022-12-05T13:40:34;4.00;2.20
3208;DHT22;1616;52.394;9.756;2022-12-05T13:43:25;4.00;2.10
3208;DHT22;1616;52.394;9.756;2022-12-05T13:46:07;3.90;1.90
3208;DHT22;1616;52.394;9.756;2022-12-05T13:48:42;3.90;2.00
3208;DHT22;1616;52.394;9.756;2022-12-05T13:51:32;3.90;1.90
3208;DHT22;1616;52.394;9.756;2022-12-05T13:54:08;3.90;1.90
3208;DHT22;1616;52.394;9.756;2022-12-05T14:07:51;3.80;1.80
3208;DHT22;1616;52.394;9.756;2022-12-05T14:12:51;3.80;1.90
3208;DHT22;1616;52.394;9.756;2022-12-05T14:15:37;3.80;2.10
3208;DHT22;1616;52.394;9.756;2022-12-05T14:23:53;3.90;2.10
3208;DHT22;1616;52.394;9.756;2022-12-05T14:26:47;3.90;2.10
3208;DHT22;1616;52.394;9.756;2022-12-05T14:29:34;3.80;2.20
3208;DHT22;1616;52.394;9.756;2022-12-05T14:32:15;3.90;2.10
3208;DHT22;1616;52.394;9.756;2022-12-05T14:37:51;3.90;1.90
3208;DHT22;1616;52.394;9.756;2022-12-05T14:40:25;3.90;1.80
3208;DHT22;1616;52.394;9.756;2022-12-05T14:42:59;3.90;2.50
3208;DHT22;1616;52.394;9.756;2022-12-05T14:45:37;3.90;1.90
3208;DHT22;1616;52.394;9.756;2022-12-05T14:50:50;3.90;2.20
3208;DHT22;1616;52.394;9.756;2022-12-05T14:53:33;3.90;2.10
3208;DHT22;1616;52.394;9.756;2022-12-05T14:59:27;3.90;1.90
3208;DHT22;1616;52.394;9.756;2022-12-05T15:01:41;4.00;1.60
3208;DHT22;1616;52.394;9.756;2022-12-05T15:07:04;3.90;1.40
3208;DHT22;1616;52.394;9.756;2022-12-05T15:10:01;3.90;1.30
3208;DHT22;1616;52.394;9.756;2022-12-05T15:12:47;3.90;1.00
3208;DHT22;1616;52.394;9.756;2022-12-05T15:17:59;3.90;1.00
3208;DHT22;1616;52.394;9.756;2022-12-05T15:29:05;3.80;1.20
3208;DHT22;1616;52.394;9.756;2022-12-05T15:31:37;3.80;1.50
3208;DHT22;1616;52.394;9.756;2022-12-05T15:36:42;3.80;1.50
3208;DHT22;1616;52.394;9.756;2022-12-05T15:39:20;3.90;1.60
3208;DHT22;1616;52.394;9.756;2022-12-05T15:41:51;3.80;1.20
3208;DHT22;1616;52.394;9.756;2022-12-05T15:44:19;3.80;1.00
3208;DHT22;1616;52.394;9.756;2022-12-05T15:46:50;3.80;1.10
3208;DHT22;1616;52.394;9.756;2022-12-05T15:49:22;3.80;1.10
3208;DHT22;1616;52.394;9.756;2022-12-05T15:51:54;3.80;1.10
3208;DHT22;1616;52.394;9.756;2022-12-05T15:54:28;3.80;1.20
3208;DHT22;1616;52.394;9.756;2022-12-05T15:57:36;3.80;1.50
3208;DHT22;1616;52.394;9.756;2022-12-05T16:00:02;3.80;1.40
3208;DHT22;1616;52.394;9.756;2022-12-05T16:02:55;3.80;1.30
3208;DHT22;1616;52.394;9.756;2022-12-05T16:07:54;3.80;1.40
3208;DHT22;1616;52.394;9.756;2022-12-05T16:10:20;3.80;1.60
3208;DHT22;1616;52.394;9.756;2022-12-05T16:12:49;3.80;1.60
3208;DHT22;1616;52.394;9.756;2022-12-05T16:15:20;3.80;1.90
3208;DHT22;1616;52.394;9.756;2022-12-05T16:17:54;3.80;1.50
3208;DHT22;1616;52.394;9.756;2022-12-05T16:20:31;3.90;1.60
3208;DHT22;1616;52.394;9.756;2022-12-05T16:23:45;3.90;1.50
3208;DHT22;1616;52.394;9.756;2022-12-05T16:25:45;3.90;1.40
3208;DHT22;1616;52.394;9.756;2022-12-05T16:28:15;3.90;1.30
3208;DHT22;1616;52.394;9.756;2022-12-05T16:31:02;3.90;1.10
3208;DHT22;1616;52.394;9.756;2022-12-05T16:33:29;3.90;1.00
3208;DHT22;1616;52.394;9.756;2022-12-05T16:36:05;3.90;1.10
3208;DHT22;1616;52.394;9.756;2022-12-05T16:38:31;3.90;1.30
3208;DHT22;1616;52.394;9.756;2022-12-05T16:40:59;3.90;1.00
3208;DHT22;1616;52.394;9.756;2022-12-05T16:45:58;3.80;1.00
3208;DHT22;1616;52.394;9.756;2022-12-05T16:48:32;3.80;1.00
3208;DHT22;1616;52.394;9.756;2022-12-05T16:51:17;3.90;1.10
3208;DHT22;1616;52.394;9.756;2022-12-05T16:53:48;3.90;1.50
3208;DHT22;1616;52.394;9.756;2022-12-05T16:56:34;4.00;1.80
3208;DHT22;1616;52.394;9.756;2022-12-05T16:59:04;4.00;1.80
3208;DHT22;1616;52.394;9.756;2022-12-05T17:01:31;4.10;2.00
3208;DHT22;1616;52.394;9.756;2022-12-05T17:03:58;4.00;1.80
3208;DHT22;1616;52.394;9.756;2022-12-05T17:06:25;4.00;1.80
3208;DHT22;1616;52.394;9.756;2022-12-05T17:08:51;4.10;1.70
3208;DHT22;1616;52.394;9.756;2022-12-05T17:11:28;4.10;1.50
3208;DHT22;1616;52.394;9.756;2022-12-05T17:13:55;4.10;1.30
3208;DHT22;1616;52.394;9.756;2022-12-05T17:16:23;4.10;1.20
3208;DHT22;1616;52.394;9.756;2022-12-05T17:18:51;4.10;1.00
3208;DHT22;1616;52.394;9.756;2022-12-05T17:21:23;4.00;1.00
3208;DHT22;1616;52.394;9.756;2022-12-05T17:23:50;4.10;1.20
3208;DHT22;1616;52.394;9.756;2022-12-05T17:26:18;4.10;1.00
3208;DHT22;1616;52.394;9.756;2022-12-05T17:28:45;4.10;1.00
3208;DHT22;1616;52.394;9.756;2022-12-05T17:31:15;4.10;1.00
3208;DHT22;1616;52.394;9.756;2022-12-05T17:33:42;4.10;1.00
3208;DHT22;1616;52.394;9.756;2022-12-05T17:36:08;4.10;1.00
3208;DHT22;1616;52.394;9.756;2022-12-05T17:38:34;4.10;1.00
3208;DHT22;1616;52.394;9.756;2022-12-05T17:41:01;4.10;1.00
3208;DHT22;1616;52.394;9.756;2022-12-05T17:43:27;4.10;1.00
3208;DHT22;1616;52.394;9.756;2022-12-05T17:45:53;4.10;1.00
3208;DHT22;1616;52.394;9.756;2022-12-05T17:48:19;4.10;1.00
3208;DHT22;1616;52.394;9.756;2022-12-05T17:50:47;4.20;1.00
3208;DHT22;1616;52.394;9.756;2022-12-05T17:53:16;4.10;1.00
3208;DHT22;1616;52.394;9.756;2022-12-05T17:55:42;4.20;1.00
3208;DHT22;1616;52.394;9.756;2022-12-05T17:58:09;4.20;1.00
3208;DHT22;1616;52.394;9.756;2022-12-05T18:00:35;4.20;1.00
3208;DHT22;1616;52.394;9.756;2022-12-05T18:03:01;4.20;1.00
3208;DHT22;1616;52.394;9.756;2022-12-05T18:05:27;4.20;1.00
3208;DHT22;1616;52.394;9.756;2022-12-05T18:07:53;4.20;1.00
3208;DHT22;1616;52.394;9.756;2022-12-05T18:10:21;4.20;1.00
3208;DHT22;1616;52.394;9.756;2022-12-05T18:12:48;4.10;1.00
3208;DHT22;1616;52.394;9.756;2022-12-05T18:15:14;4.20;1.00
3208;DHT22;1616;52.394;9.756;2022-12-05T18:17:41;4.10;1.00
3208;DHT22;1616;52.394;9.756;2022-12-05T18:20:10;4.10;1.00
3208;DHT22;1616;52.394;9.756;2022-12-05T18:22:36;4.10;1.00
3208;DHT22;1616;52.394;9.756;2022-12-05T18:25:03;4.10;1.00
3208;DHT22;1616;52.394;9.756;2022-12-05T18:27:30;4.10;1.00
3208;DHT22;1616;52.394;9.756;2022-12-05T18:29:58;4.10;1.00
3208;DHT22;1616;52.394;9.756;2022-12-05T18:32:24;4.10;1.00
3208;DHT22;1616;52.394;9.756;2022-12-05T18:34:50;4.10;1.00
3208;DHT22;1616;52.394;9.756;2022-12-05T18:37:15;4.10;1.00
3208;DHT22;1616;52.394;9.756;2022-12-05T18:39:44;4.10;1.00
3208;DHT22;1616;52.394;9.756;2022-12-05T18:42:10;4.10;1.00
3208;DHT22;1616;52.394;9.756;2022-12-05T18:44:36;4.10;1.00
3208;DHT22;1616;52.394;9.756;2022-12-05T18:47:02;4.10;1.10
3208;DHT22;1616;52.394;9.756;2022-12-05T18:49:28;4.10;1.20
3208;DHT22;1616;52.394;9.756;2022-12-05T18:51:53;4.20;1.40
3208;DHT22;1616;52.394;9.756;2022-12-05T18:54:19;4.20;1.30
3208;DHT22;1616;52.394;9.756;2022-12-05T18:56:45;4.20;1.20
3208;DHT22;1616;52.394;9.756;2022-12-05T18:59:16;4.20;1.30
3208;DHT22;1616;52.394;9.756;2022-12-05T19:01:43;4.20;1.40
3208;DHT22;1616;52.394;9.756;2022-12-05T19:04:12;4.30;1.40
3208;DHT22;1616;52.394;9.756;2022-12-05T19:06:39;4.30;1.10
3208;DHT22;1616;52.394;9.756;2022-12-05T19:09:09;4.30;1.10
3208;DHT22;1616;52.394;9.756;2022-12-05T19:11:35;4.30;1.00
3208;DHT22;1616;52.394;9.756;2022-12-05T19:14:03;4.30;1.10
3208;DHT22;1616;52.394;9.756;2022-12-05T19:16:30;4.30;1.00
3208;DHT22;1616;52.394;9.756;2022-12-05T19:18:58;4.30;1.00
3208;DHT22;1616;52.394;9.756;2022-12-05T19:21:25;4.30;1.00
3208;DHT22;1616;52.394;9.756;2022-12-05T19:23:51;4.30;1.20
3208;DHT22;1616;52.394;9.756;2022-12-05T19:26:18;4.30;1.10
3208;DHT22;1616;52.394;9.756;2022-12-05T19:28:44;4.30;1.10
3208;DHT22;1616;52.394;9.756;2022-12-05T19:31:13;4.30;1.00
3208;DHT22;1616;52.394;9.756;2022-12-05T19:33:40;4.30;1.00
3208;DHT22;1616;52.394;9.756;2022-12-05T19:36:15;4.30;1.10